C Gables, Florida
Current Conditions -  °F | °C
As of 8:53 AM on Friday 31 Oct 2014 (Local Time) from KTMB Reporting Station
Clear Clear  
Wind Chill: 77°   Ceiling: Unl
Heat Index: 79°   Visibility: 10mi
Dew Point: 71°   Wind: 3mph
Humidity: 82%   Direction: 250°WSW
Pressure: 29.87"   Gusts: NA
Location:  25.6371°N, 80.3102°W
Report Text: KTMB 311253Z 25003KT 10SM CLR 25/22 A2987 RMK AO2 SLP115 T02500217
Loading
Personal Weather Stations






























Interactive Weather Map
Tropical Storm Tracking
New forecast layout! Learn more

10-Day Weather Forecast

Advertisements
Track Severe Weather on mobile